Effective Sunday, March 17, 2024, the National Weather Service National Data Buoy Center will discontinue its Dial-A-Buoy Interactive Voice Response system. For more information, see Service Change Notice 24-06 (PDF).

Station KOZA2 - KOTZEBUE MXAK, AK Image indicating link to RSS feed of recent meteorological observations for station KOZA2


Conditions at KOZA2 as of
0644 GMT on 03/02/2024:
     

Click on the graph icon in the table below to see a time series plot of the last five days of that observation.

5-day plot - Wind Direction Wind Direction (WDIR): E ( 100 deg true )
5-day plot - Wind Speed Wind Speed (WSPD): 4 kts
5-day plot - Wind Gust Wind Gust (GST): 6 kts
5-day plot - Atmospheric Pressure Atmospheric Pressure (PRES):30.46 in
5-day plot - Air Temperature Air Temperature (ATMP):-22.0 °F
5-day plot - Dew Point Dew Point (DEWP):-27.9 °F
5-day plot - Wind Chill Wind Chill (CHILL):-35.7 °F
5-day plot - Wind Speed at 10 Meters Wind Speed at 10 meters (WSPD10M): 4 kts
5-day plot - Wind Speed at 20 Meters Wind Speed at 20 meters (WSPD20M): 4 kts
5-day plot -  Wind Speed, Wind Gust and Atmospheric Pressure Combined plot of Wind Speed, Gust, and Air Pressure
Previous observations
TIME
(GMT)
5-day plot - Wind Direction
WDIR
 
5-day plot - Wind Speed
WSPD
kts
5-day plot - Wind Gust
GST
kts
5-day plot - Wave Height
WVHT
ft
5-day plot - Dominant Wave Period
DPD
sec
5-day plot - Average Wave Period
APD
sec
5-day plot - Mean Wave Direction
MWD
 
5-day plot - Atmospheric Pressure
PRES
in
5-day plot - Pressure Tendency
PTDY
in
5-day plot - Air Temperature
ATMP
°F
5-day plot - Water Temperature
WTMP
°F
5-day plot - Dew Point
DEWP
°F
5-day plot - Salinity
SAL
psu
5-day plot - Visibility
VIS
nmi
5-day plot - Tide (above MLLW)
TIDE
ft
2024-03-02 0634 E 3 5----30.46--22.9--29.0---
2024-03-02 0624 E 4 6----30.46--22.9--29.0---
2024-03-02 0614 E 4 6----30.47--22.4--28.3---
2024-03-02 0604 E 3 6----30.48--22.4--28.3---
2024-03-02 0554ENE 3 6----30.48--22.7--28.7---
2024-03-02 0544ENE 4 7----30.48--22.9--28.8---
2024-03-02 0534ENE 4 6----30.48--22.7--28.7---
2024-03-02 0524ENE 3 5----30.48--22.7--28.7---
2024-03-02 0514ENE 2 4----30.49--22.5--28.5---
2024-03-02 0504 E 2 4----30.49--22.4--28.3---
2024-03-02 0454 E 2 4----30.49--22.7--28.7---
2024-03-02 0444 E 2 4----30.49--23.1--29.0---
2024-03-02 0434 E 2 4----30.49--23.1--29.2---
2024-03-02 0424 E 3 5----30.49--22.9--29.0---
2024-03-02 0414 E 2 4----30.49--22.5--28.5---
2024-03-02 0404 E 3 5----30.49--22.2--28.1---
2024-03-02 0354 E 5 6----30.49--21.6--27.4---
2024-03-02 0344 E 5 7----30.48--21.6--27.4---
2024-03-02 0334 E 6 10----30.48--21.6--27.4---
2024-03-02 0324 E 6 11----30.48--21.6--27.4---
2024-03-02 0314 E 6 10----30.48--21.5--27.2---
2024-03-02 0304 E 5 8----30.49--21.3--27.0---
2024-03-02 0254 E 6 9----30.49--21.6--27.4---
2024-03-02 0244 E 6 9----30.48--21.5--27.4---
2024-03-02 0234 E 5 7----30.49--21.1--27.2---
2024-03-02 0224 E 4 6----30.49--20.7--26.9---
2024-03-02 0214 E 4 6----30.49--20.6--27.0---
2024-03-02 0204 E 3 5----30.49--20.4--26.3---
2024-03-02 0154ESE 4 6----30.49--20.0--26.1---
2024-03-02 0144ESE 3 5----30.49--19.7--26.0---
2024-03-02 0134ESE 4 5----30.49--19.3--25.4---
2024-03-02 0124ESE 2 4----30.49--18.6--24.5---
2024-03-02 0114ESE 2 4----30.49--18.2--24.7---
2024-03-02 0104ESE 2 4----30.49--18.6--24.9---
2024-03-02 0054 SE 2 3----30.49--18.6--24.7---
2024-03-02 0044SSE 2 3----30.50--18.4--26.0---
2024-03-02 0034 SW 1 3----30.50--18.0--25.2---
2024-03-02 0024SSE 2 5----30.50--20.0--27.2---
2024-03-02 0014 S 3 5----30.49--19.8--26.7---
2024-03-01 2354ESE 3 5----30.48--19.7--26.3---
2024-03-01 2344 E 3 4----30.48--19.1--26.0---
2024-03-01 2334 E 3 4----30.48--18.8--25.1---
2024-03-01 2324 E 3 4----30.49--18.9--25.6---
2024-03-01 2314ESE 2 4----30.50--18.9--25.4---
2024-03-01 2304SSE 3 4----30.50--19.5--26.1---
2024-03-01 2254 S 4 6----30.50--20.2--26.9---
2024-03-01 2244 S 3 6----30.50--18.8--25.4---
2024-03-01 2234 SE 2 3----30.50--17.7--23.6---
2024-03-01 2224 E 2 3----30.50--17.7--23.4---
2024-03-01 2214 E 2 4----30.50--18.2--24.2---
2024-03-01 2204 E 2 4----30.50--19.5--25.4---
2024-03-01 2154 E 4 7----30.49--20.6--26.5---
2024-03-01 2144ENE 4 6----30.49--21.1--27.4---
2024-03-01 2134ENE 3 5----30.49--21.1--27.6---
2024-03-01 2124 E 3 5----30.49--21.1--27.4---
2024-03-01 2114 E 3 6----30.49--21.6--28.1---
2024-03-01 2104ENE 3 5----30.49--21.3--27.8---
2024-03-01 2054 E 3 5----30.49--20.7--27.0---
2024-03-01 2044 E 2 4----30.50--20.6--26.7---
2024-03-01 2034ENE 2 3----30.50--20.7--26.9---
2024-03-01 2024ENE 2 3----30.49--20.7--26.7---
2024-03-01 2014 E 2 4----30.49--21.3--27.4---
2024-03-01 2004 E 3 4----30.48--21.6--27.6---
2024-03-01 1954 E 2 4----30.49--20.9--27.0---
2024-03-01 1944 E 2 4----30.49--20.4--26.3---
2024-03-01 1934 E 1 2----30.49--20.7--26.7---
2024-03-01 1924- 0 2----30.49--21.1--27.0---
2024-03-01 1914WSW 1 2----30.49--21.5--27.6---
2024-03-01 1904ENE 1 2----30.48--22.2--28.1---
2024-03-01 1854ENE 2 3----30.47--22.5--28.7---
2024-03-01 1844 E 2 3----30.47--22.7--28.7---
2024-03-01 1834 E 1 2----30.47--22.5--28.5---
2024-03-01 1824 NE 2 3----30.47--22.9--28.8---
2024-03-01 1814ENE 2 3----30.47--23.1--29.0---
2024-03-01 1804 E 2 4----30.47--23.1--29.0---
2024-03-01 1754 SE 2 3----30.47--23.1--28.8---
2024-03-01 1744 SE 2 3----30.47--22.9--28.8---
2024-03-01 1734 E 2 4----30.46--22.9--28.8---
2024-03-01 1724ENE 3 5----30.46--23.1--29.2---
2024-03-01 1714ENE 4 5----30.46--23.3--29.2---
2024-03-01 1704ENE 3 5----30.46--23.1--29.0---
2024-03-01 1654ENE 3 5----30.46--23.3--29.2---
2024-03-01 1644ENE 3 5----30.46--23.3--29.2---
2024-03-01 1634 E 3 4----30.46--23.4--29.6---
2024-03-01 1624 E 3 5----30.46--23.4--29.6---
2024-03-01 1614ENE 4 5----30.47--23.4--29.6---
2024-03-01 1604ENE 3 6----30.47--22.9--29.0---
2024-03-01 1554 NE 3 5----30.47--22.4--28.3---
2024-03-01 1544 NE 2 3----30.48--21.6--27.6---
2024-03-01 1534ENE 2 3----30.47--21.8--27.8---
2024-03-01 1524ENE 2 3----30.47--22.2--28.1---
2024-03-01 1514- 0 2----30.47--22.2--28.1---
2024-03-01 1504ENE 2 4----30.48--22.0--27.9---
2024-03-01 1454ESE 2 2----30.48--21.8--27.6---
2024-03-01 1444 SE 1 3----30.48--22.2--28.3---
2024-03-01 1434ENE 2 3----30.48--22.0--28.1---
2024-03-01 1424 E 2 2----30.47--22.0--28.3---
2024-03-01 1414ENE 2 4----30.47--21.8--28.1---
2024-03-01 1404 E 3 4----30.47--22.0--28.3---
2024-03-01 1354 E 3 4----30.46--21.8--28.3---
2024-03-01 1344 E 3 5----30.46--21.5--27.9---
2024-03-01 1334 E 3 5----30.46--21.5--27.8---
2024-03-01 1324ENE 3 5----30.46--21.5--27.8---
2024-03-01 1314 E 3 4----30.45--21.8--27.9---
2024-03-01 1304 E 3 5----30.45--21.1--27.2---
2024-03-01 1254ENE 3 5----30.45--21.1--27.2---
2024-03-01 1244 E 2 3----30.45--22.2--28.5---
2024-03-01 1234 E 4 5----30.45--22.0--28.5---
2024-03-01 1224 E 4 5----30.45--22.0--28.3---
2024-03-01 1214 E 4 6----30.45--21.8--28.1---
2024-03-01 1204 E 3 5----30.45--21.8--27.8---
2024-03-01 1154 E 4 6----30.45--21.6--27.8---
2024-03-01 1144ENE 4 6----30.45--21.8--27.9---
2024-03-01 1134 E 4 5----30.45--22.9--29.0---
2024-03-01 1124 E 4 6----30.44--22.9--29.0---
2024-03-01 1114 E 4 6----30.44--22.5--28.7---
2024-03-01 1104 E 4 5----30.44--22.2--28.1---
2024-03-01 1054 E 2 4----30.44--22.0--27.9---
2024-03-01 1044 E 2 3----30.43--21.6--27.8---
2024-03-01 1034ENE 2 4----30.43--20.9--26.9---
2024-03-01 1024 NE 4 5----30.42--20.9--26.9---
2024-03-01 1014ENE 3 5----30.42--20.9--26.9---
2024-03-01 1004 E 3 5----30.42--21.5--27.6---
2024-03-01 0954 E 3 5----30.42--21.3--27.4---
2024-03-01 0944ENE 3 5----30.42--20.0--26.3---
2024-03-01 0934NNE 3 6----30.41--19.3--25.8---
2024-03-01 0924 NE 3 6----30.41--19.5--25.8---
2024-03-01 0914 NE 4 6----30.41--19.7--26.0---
2024-03-01 0904 NE 5 7----30.41--19.7--26.0---
2024-03-01 0854NNE 4 7----30.41--19.8--25.8---
2024-03-01 0844ENE 3 7----30.40--20.7--26.7---
2024-03-01 0834 E 3 5----30.40--20.7--26.9---
2024-03-01 0824ENE 5 7----30.40--20.2--26.3---
2024-03-01 0814ENE 4 6----30.40--19.7--25.8---
2024-03-01 0804ENE 4 6----30.39--19.7--25.6---
2024-03-01 0754ENE 4 6----30.39--19.5--25.4---
2024-03-01 0744 NE 3 6----30.39--19.5--25.1---
2024-03-01 0734ENE 3 5----30.39--20.0--25.8---
2024-03-01 0724ENE 2 4----30.38--20.4--26.0---
2024-03-01 0714 E 2 4----30.38--20.6--26.3---
2024-03-01 0704 E 3 4----30.38--20.4--26.0---
2024-03-01 0654 E 2 3----30.37--20.2--26.0---